Hovedside
METAR-TAF:

METAR-TAF

Lufthavner :

Bergen lufthavn. Flesland

Bergen, Norge

breddegrad: 60-17N, lengdegrad: 005-14E, høyde over havet: 5 m

Gjeldene værobservasjon

Denne rapporten ble laget for 26 minutter siden, klokken 18:20 UTC
Vind 2 kt fra Øst-nordøst
Temperatur 1°C
Luftfuktighet 100%
Trykk 1035 hPa
Sikt 10 km eller mer
Få skyer i en høyde av 300 ft

METAR: ENBR 191820Z 07002KT 9999 FEW003 01/01 Q1035 TEMPO 1500 BCFG RMK WIND 1200FT 01006KT

Tid: 19:46 (18:46 UTC)

Varsel

Varsel gyldig fra 19. klokken 18 UTC til 20. klokken 18 UTC
Vind 3 kt fra skiftende retning
Sikt 10 km eller mer
Få skyer i en høyde av 200 ft
Sannsynlighet 40%
fra 19. klokken 18 UTC til 20. klokken 09 UTC
Sikt: 1200 m
tåkebanker

TAF: ENBR 1918/2018 VRB03KT 9999 FEW002 PROB40 1918/2009 1200 BCFG

Værobservasjoner og værvarsel for over 4000 flyplasser (METAR- og TAF-rapporter).

Tilgjengelige stasjoner er representert av de røde og gule prikkene på kartet.

Hold musepekeren over prikken for å se navnet på stasjonen.

Klikk så for å se værobservasjoner og -varsler.

For å forandre kartet kan du klikke på den grønne knappen med svart kryss for å zoome inn, på den grønne knappen med strek for å zoome ut, eller på de grønne pilene for å se tilstøtende kart.


METAR-TAF: